sensor_id;sensor_type;location;lat;lon;timestamp;temperature;humidity
71128;SHT30;59249;59.736;30.568;2023-05-07T00:00:08;2.70;76.97
71128;SHT30;59249;59.736;30.568;2023-05-07T00:02:38;2.65;77.75
71128;SHT30;59249;59.736;30.568;2023-05-07T00:05:08;2.65;77.84
71128;SHT30;59249;59.736;30.568;2023-05-07T00:07:37;2.48;77.97
71128;SHT30;59249;59.736;30.568;2023-05-07T00:10:08;2.53;78.05
71128;SHT30;59249;59.736;30.568;2023-05-07T00:12:37;2.53;78.27
71128;SHT30;59249;59.736;30.568;2023-05-07T00:15:08;2.51;78.35
71128;SHT30;59249;59.736;30.568;2023-05-07T00:17:38;2.53;78.22
71128;SHT30;59249;59.736;30.568;2023-05-07T00:20:08;2.53;78.34
71128;SHT30;59249;59.736;30.568;2023-05-07T00:22:37;2.50;78.54
71128;SHT30;59249;59.736;30.568;2023-05-07T00:25:07;2.47;78.57
71128;SHT30;59249;59.736;30.568;2023-05-07T00:27:37;2.43;78.56
71128;SHT30;59249;59.736;30.568;2023-05-07T00:30:09;2.41;79.02
71128;SHT30;59249;59.736;30.568;2023-05-07T00:32:38;2.39;78.91
71128;SHT30;59249;59.736;30.568;2023-05-07T00:35:08;2.36;78.91
71128;SHT30;59249;59.736;30.568;2023-05-07T00:37:38;2.32;78.93
71128;SHT30;59249;59.736;30.568;2023-05-07T00:40:08;2.40;78.99
71128;SHT30;59249;59.736;30.568;2023-05-07T00:42:37;2.32;79.19
71128;SHT30;59249;59.736;30.568;2023-05-07T00:45:08;2.39;79.48
71128;SHT30;59249;59.736;30.568;2023-05-07T00:47:38;2.35;79.61
71128;SHT30;59249;59.736;30.568;2023-05-07T00:50:09;2.34;79.66
71128;SHT30;59249;59.736;30.568;2023-05-07T00:52:40;2.32;79.88
71128;SHT30;59249;59.736;30.568;2023-05-07T00:55:09;2.32;79.84
71128;SHT30;59249;59.736;30.568;2023-05-07T00:57:41;2.22;79.76
71128;SHT30;59249;59.736;30.568;2023-05-07T01:00:13;2.12;80.07
71128;SHT30;59249;59.736;30.568;2023-05-07T01:02:42;2.30;80.04
71128;SHT30;59249;59.736;30.568;2023-05-07T01:05:15;2.23;80.04
71128;SHT30;59249;59.736;30.568;2023-05-07T01:07:45;2.26;80.11
71128;SHT30;59249;59.736;30.568;2023-05-07T01:10:15;2.14;80.27
71128;SHT30;59249;59.736;30.568;2023-05-07T01:12:48;2.15;80.30
71128;SHT30;59249;59.736;30.568;2023-05-07T01:15:19;2.14;80.32
71128;SHT30;59249;59.736;30.568;2023-05-07T01:17:48;2.20;80.44
71128;SHT30;59249;59.736;30.568;2023-05-07T01:20:23;2.15;80.40
71128;SHT30;59249;59.736;30.568;2023-05-07T01:22:57;2.09;80.24
71128;SHT30;59249;59.736;30.568;2023-05-07T01:25:26;2.19;80.40
71128;SHT30;59249;59.736;30.568;2023-05-07T01:27:58;2.07;80.45
71128;SHT30;59249;59.736;30.568;2023-05-07T01:30:34;2.18;80.48
71128;SHT30;59249;59.736;30.568;2023-05-07T01:33:11;2.18;80.74
71128;SHT30;59249;59.736;30.568;2023-05-07T01:35:46;2.14;80.66
71128;SHT30;59249;59.736;30.568;2023-05-07T01:38:18;2.20;80.49
71128;SHT30;59249;59.736;30.568;2023-05-07T01:40:47;2.22;80.39
71128;SHT30;59249;59.736;30.568;2023-05-07T01:43:16;2.25;80.38
71128;SHT30;59249;59.736;30.568;2023-05-07T01:45:46;2.25;80.59
71128;SHT30;59249;59.736;30.568;2023-05-07T01:48:17;2.32;80.65
71128;SHT30;59249;59.736;30.568;2023-05-07T01:50:47;2.31;80.68
71128;SHT30;59249;59.736;30.568;2023-05-07T01:53:17;2.37;80.45
71128;SHT30;59249;59.736;30.568;2023-05-07T01:55:46;2.52;80.39
71128;SHT30;59249;59.736;30.568;2023-05-07T01:58:16;2.46;80.28
71128;SHT30;59249;59.736;30.568;2023-05-07T02:00:45;2.48;80.45
71128;SHT30;59249;59.736;30.568;2023-05-07T02:03:14;2.51;80.28
71128;SHT30;59249;59.736;30.568;2023-05-07T02:05:54;2.44;80.38
71128;SHT30;59249;59.736;30.568;2023-05-07T02:08:34;2.52;80.33
71128;SHT30;59249;59.736;30.568;2023-05-07T02:11:03;2.53;80.14
71128;SHT30;59249;59.736;30.568;2023-05-07T02:13:34;2.60;80.08
71128;SHT30;59249;59.736;30.568;2023-05-07T02:16:06;2.66;79.94
71128;SHT30;59249;59.736;30.568;2023-05-07T02:18:35;2.72;79.70
71128;SHT30;59249;59.736;30.568;2023-05-07T02:21:05;2.74;80.09
71128;SHT30;59249;59.736;30.568;2023-05-07T02:23:35;2.79;79.56
71128;SHT30;59249;59.736;30.568;2023-05-07T02:26:04;2.82;79.57
71128;SHT30;59249;59.736;30.568;2023-05-07T02:28:33;2.89;79.60
71128;SHT30;59249;59.736;30.568;2023-05-07T02:31:05;2.76;79.76
71128;SHT30;59249;59.736;30.568;2023-05-07T02:33:34;2.78;79.79
71128;SHT30;59249;59.736;30.568;2023-05-07T02:36:08;2.76;79.84
71128;SHT30;59249;59.736;30.568;2023-05-07T02:38:45;2.88;79.73
71128;SHT30;59249;59.736;30.568;2023-05-07T02:41:13;2.93;79.80
71128;SHT30;59249;59.736;30.568;2023-05-07T02:43:42;3.02;79.67
71128;SHT30;59249;59.736;30.568;2023-05-07T02:46:12;3.04;79.75
71128;SHT30;59249;59.736;30.568;2023-05-07T02:48:45;3.07;79.68
71128;SHT30;59249;59.736;30.568;2023-05-07T02:51:14;3.04;79.91
71128;SHT30;59249;59.736;30.568;2023-05-07T02:53:45;3.16;80.03
71128;SHT30;59249;59.736;30.568;2023-05-07T02:56:13;3.21;79.73
71128;SHT30;59249;59.736;30.568;2023-05-07T02:58:42;3.23;79.83
71128;SHT30;59249;59.736;30.568;2023-05-07T03:01:12;3.30;79.69
71128;SHT30;59249;59.736;30.568;2023-05-07T03:03:50;3.32;79.69
71128;SHT30;59249;59.736;30.568;2023-05-07T03:06:19;3.43;79.69
71128;SHT30;59249;59.736;30.568;2023-05-07T03:08:50;3.44;79.59
71128;SHT30;59249;59.736;30.568;2023-05-07T03:11:19;3.60;79.61
71128;SHT30;59249;59.736;30.568;2023-05-07T03:13:48;3.65;79.35
71128;SHT30;59249;59.736;30.568;2023-05-07T03:16:19;3.70;79.40
71128;SHT30;59249;59.736;30.568;2023-05-07T03:18:48;3.70;79.29
71128;SHT30;59249;59.736;30.568;2023-05-07T03:21:17;3.89;79.26
71128;SHT30;59249;59.736;30.568;2023-05-07T03:23:46;3.96;79.16
71128;SHT30;59249;59.736;30.568;2023-05-07T03:26:16;4.00;79.21
71128;SHT30;59249;59.736;30.568;2023-05-07T03:28:45;4.03;78.71
71128;SHT30;59249;59.736;30.568;2023-05-07T03:31:16;4.20;78.67
71128;SHT30;59249;59.736;30.568;2023-05-07T03:33:53;4.17;78.66
71128;SHT30;59249;59.736;30.568;2023-05-07T03:36:24;4.16;78.46
71128;SHT30;59249;59.736;30.568;2023-05-07T03:38:55;4.15;78.52
71128;SHT30;59249;59.736;30.568;2023-05-07T03:41:28;4.35;78.08
71128;SHT30;59249;59.736;30.568;2023-05-07T03:43:57;4.10;78.44
71128;SHT30;59249;59.736;30.568;2023-05-07T03:46:26;4.37;78.04
71128;SHT30;59249;59.736;30.568;2023-05-07T03:48:55;4.71;77.58
71128;SHT30;59249;59.736;30.568;2023-05-07T03:51:24;4.69;77.47
71128;SHT30;59249;59.736;30.568;2023-05-07T03:53:54;4.81;77.11
71128;SHT30;59249;59.736;30.568;2023-05-07T03:56:25;4.86;77.12
71128;SHT30;59249;59.736;30.568;2023-05-07T03:58:58;4.95;76.99
71128;SHT30;59249;59.736;30.568;2023-05-07T04:01:32;4.98;76.58
71128;SHT30;59249;59.736;30.568;2023-05-07T04:04:18;5.16;76.60
71128;SHT30;59249;59.736;30.568;2023-05-07T04:06:48;5.28;76.27
71128;SHT30;59249;59.736;30.568;2023-05-07T04:09:16;5.36;75.94
71128;SHT30;59249;59.736;30.568;2023-05-07T04:11:47;5.50;75.56
71128;SHT30;59249;59.736;30.568;2023-05-07T04:14:17;5.58;74.93
71128;SHT30;59249;59.736;30.568;2023-05-07T04:16:46;5.64;74.76
71128;SHT30;59249;59.736;30.568;2023-05-07T04:19:14;5.60;74.49
71128;SHT30;59249;59.736;30.568;2023-05-07T04:21:44;5.65;74.62
71128;SHT30;59249;59.736;30.568;2023-05-07T04:24:13;5.75;74.31
71128;SHT30;59249;59.736;30.568;2023-05-07T04:26:43;5.68;74.22
71128;SHT30;59249;59.736;30.568;2023-05-07T04:29:12;5.89;74.51
71128;SHT30;59249;59.736;30.568;2023-05-07T04:31:43;6.05;73.75
71128;SHT30;59249;59.736;30.568;2023-05-07T04:34:12;6.01;73.48
71128;SHT30;59249;59.736;30.568;2023-05-07T04:36:42;6.23;73.14
71128;SHT30;59249;59.736;30.568;2023-05-07T04:39:13;6.28;72.91
71128;SHT30;59249;59.736;30.568;2023-05-07T04:41:44;6.44;72.70
71128;SHT30;59249;59.736;30.568;2023-05-07T04:44:13;6.49;72.34
71128;SHT30;59249;59.736;30.568;2023-05-07T04:46:44;6.41;72.17
71128;SHT30;59249;59.736;30.568;2023-05-07T04:49:13;6.50;72.59
71128;SHT30;59249;59.736;30.568;2023-05-07T04:51:42;6.87;71.63
71128;SHT30;59249;59.736;30.568;2023-05-07T04:54:12;6.93;70.98
71128;SHT30;59249;59.736;30.568;2023-05-07T04:56:41;7.03;70.73
71128;SHT30;59249;59.736;30.568;2023-05-07T04:59:10;7.15;70.71
71128;SHT30;59249;59.736;30.568;2023-05-07T05:01:40;7.06;70.32
71128;SHT30;59249;59.736;30.568;2023-05-07T05:04:10;7.24;70.42
71128;SHT30;59249;59.736;30.568;2023-05-07T05:06:40;7.28;69.84
71128;SHT30;59249;59.736;30.568;2023-05-07T05:09:11;7.10;70.14
71128;SHT30;59249;59.736;30.568;2023-05-07T05:11:41;7.08;69.46
71128;SHT30;59249;59.736;30.568;2023-05-07T05:14:10;7.24;69.15
71128;SHT30;59249;59.736;30.568;2023-05-07T05:16:38;6.98;69.31
71128;SHT30;59249;59.736;30.568;2023-05-07T05:19:08;7.03;69.25
71128;SHT30;59249;59.736;30.568;2023-05-07T05:21:40;6.96;69.39
71128;SHT30;59249;59.736;30.568;2023-05-07T05:24:10;7.05;69.64
71128;SHT30;59249;59.736;30.568;2023-05-07T05:26:39;7.11;69.53
71128;SHT30;59249;59.736;30.568;2023-05-07T05:29:08;7.39;69.25
71128;SHT30;59249;59.736;30.568;2023-05-07T05:31:40;7.32;68.23
71128;SHT30;59249;59.736;30.568;2023-05-07T05:34:10;7.45;68.09
71128;SHT30;59249;59.736;30.568;2023-05-07T05:36:40;7.63;67.09
71128;SHT30;59249;59.736;30.568;2023-05-07T05:39:09;7.77;66.46
71128;SHT30;59249;59.736;30.568;2023-05-07T05:41:38;8.07;66.32
71128;SHT30;59249;59.736;30.568;2023-05-07T05:44:07;8.13;64.12
71128;SHT30;59249;59.736;30.568;2023-05-07T05:46:36;8.41;62.80
71128;SHT30;59249;59.736;30.568;2023-05-07T05:49:06;8.64;61.03
71128;SHT30;59249;59.736;30.568;2023-05-07T05:51:35;8.63;59.73
71128;SHT30;59249;59.736;30.568;2023-05-07T05:54:05;8.93;58.59
71128;SHT30;59249;59.736;30.568;2023-05-07T05:56:34;8.90;57.43
71128;SHT30;59249;59.736;30.568;2023-05-07T05:59:03;9.08;56.43
71128;SHT30;59249;59.736;30.568;2023-05-07T06:01:33;9.22;54.56
71128;SHT30;59249;59.736;30.568;2023-05-07T06:04:04;9.08;54.05
71128;SHT30;59249;59.736;30.568;2023-05-07T06:06:33;9.08;54.57
71128;SHT30;59249;59.736;30.568;2023-05-07T06:09:15;9.26;55.45
71128;SHT30;59249;59.736;30.568;2023-05-07T06:11:44;9.39;54.91
71128;SHT30;59249;59.736;30.568;2023-05-07T06:14:13;9.19;54.13
71128;SHT30;59249;59.736;30.568;2023-05-07T06:16:42;8.99;52.88
71128;SHT30;59249;59.736;30.568;2023-05-07T06:19:11;9.00;53.06
71128;SHT30;59249;59.736;30.568;2023-05-07T06:21:41;9.26;53.39
71128;SHT30;59249;59.736;30.568;2023-05-07T06:24:12;9.28;51.88
71128;SHT30;59249;59.736;30.568;2023-05-07T06:26:40;9.03;51.46
71128;SHT30;59249;59.736;30.568;2023-05-07T06:29:09;9.33;52.58
71128;SHT30;59249;59.736;30.568;2023-05-07T06:31:40;9.38;52.34
71128;SHT30;59249;59.736;30.568;2023-05-07T06:34:10;9.84;52.21
71128;SHT30;59249;59.736;30.568;2023-05-07T06:36:41;10.01;51.43
71128;SHT30;59249;59.736;30.568;2023-05-07T06:39:25;10.11;50.17
71128;SHT30;59249;59.736;30.568;2023-05-07T06:41:54;9.52;49.90
71128;SHT30;59249;59.736;30.568;2023-05-07T06:44:27;9.98;50.21
71128;SHT30;59249;59.736;30.568;2023-05-07T06:47:09;10.04;50.34
71128;SHT30;59249;59.736;30.568;2023-05-07T06:49:41;10.25;50.03
71128;SHT30;59249;59.736;30.568;2023-05-07T06:52:12;10.19;49.68
71128;SHT30;59249;59.736;30.568;2023-05-07T06:54:43;10.25;48.56
71128;SHT30;59249;59.736;30.568;2023-05-07T06:57:15;10.42;49.17
71128;SHT30;59249;59.736;30.568;2023-05-07T06:59:44;10.37;49.38
71128;SHT30;59249;59.736;30.568;2023-05-07T07:02:12;10.30;49.26
71128;SHT30;59249;59.736;30.568;2023-05-07T07:04:44;10.29;48.75
71128;SHT30;59249;59.736;30.568;2023-05-07T07:07:14;10.35;48.41
71128;SHT30;59249;59.736;30.568;2023-05-07T07:09:47;10.09;48.32
71128;SHT30;59249;59.736;30.568;2023-05-07T07:12:18;10.21;48.51
71128;SHT30;59249;59.736;30.568;2023-05-07T07:14:47;9.78;48.64
71128;SHT30;59249;59.736;30.568;2023-05-07T07:17:16;9.89;49.17
71128;SHT30;59249;59.736;30.568;2023-05-07T07:19:45;9.91;49.32
71128;SHT30;59249;59.736;30.568;2023-05-07T07:22:14;9.78;49.26
71128;SHT30;59249;59.736;30.568;2023-05-07T07:24:43;9.67;49.51
71128;SHT30;59249;59.736;30.568;2023-05-07T07:27:16;9.75;49.59
71128;SHT30;59249;59.736;30.568;2023-05-07T07:29:49;10.05;49.05
71128;SHT30;59249;59.736;30.568;2023-05-07T07:32:19;10.01;47.87
71128;SHT30;59249;59.736;30.568;2023-05-07T07:34:49;9.97;46.87
71128;SHT30;59249;59.736;30.568;2023-05-07T07:37:18;9.97;46.85
71128;SHT30;59249;59.736;30.568;2023-05-07T07:39:46;10.06;46.65
71128;SHT30;59249;59.736;30.568;2023-05-07T07:42:16;9.95;46.01
71128;SHT30;59249;59.736;30.568;2023-05-07T07:44:45;10.17;46.74
71128;SHT30;59249;59.736;30.568;2023-05-07T07:47:17;10.26;46.57
71128;SHT30;59249;59.736;30.568;2023-05-07T07:49:47;10.14;44.69
71128;SHT30;59249;59.736;30.568;2023-05-07T07:52:17;10.07;43.54
71128;SHT30;59249;59.736;30.568;2023-05-07T07:54:51;10.07;44.54
71128;SHT30;59249;59.736;30.568;2023-05-07T07:57:23;10.24;43.74
71128;SHT30;59249;59.736;30.568;2023-05-07T07:59:52;10.31;43.01
71128;SHT30;59249;59.736;30.568;2023-05-07T08:02:21;10.29;42.17
71128;SHT30;59249;59.736;30.568;2023-05-07T08:04:50;10.33;42.47
71128;SHT30;59249;59.736;30.568;2023-05-07T08:07:19;10.10;40.64
71128;SHT30;59249;59.736;30.568;2023-05-07T08:09:50;10.35;41.24
71128;SHT30;59249;59.736;30.568;2023-05-07T08:12:23;10.46;41.13
71128;SHT30;59249;59.736;30.568;2023-05-07T08:14:53;10.56;41.06
71128;SHT30;59249;59.736;30.568;2023-05-07T08:17:23;10.49;40.55
71128;SHT30;59249;59.736;30.568;2023-05-07T08:19:53;10.14;40.38
71128;SHT30;59249;59.736;30.568;2023-05-07T08:22:22;10.58;40.10
71128;SHT30;59249;59.736;30.568;2023-05-07T08:24:51;10.42;38.94
71128;SHT30;59249;59.736;30.568;2023-05-07T08:27:22;10.67;39.14
71128;SHT30;59249;59.736;30.568;2023-05-07T08:29:51;11.13;39.51
71128;SHT30;59249;59.736;30.568;2023-05-07T08:32:21;11.26;39.37
71128;SHT30;59249;59.736;30.568;2023-05-07T08:34:50;11.54;39.61
71128;SHT30;59249;59.736;30.568;2023-05-07T08:37:21;11.62;38.53
71128;SHT30;59249;59.736;30.568;2023-05-07T08:39:50;11.63;37.69
71128;SHT30;59249;59.736;30.568;2023-05-07T08:42:23;11.59;37.51
71128;SHT30;59249;59.736;30.568;2023-05-07T08:44:57;11.52;37.32
71128;SHT30;59249;59.736;30.568;2023-05-07T08:47:42;11.58;37.67
71128;SHT30;59249;59.736;30.568;2023-05-07T08:50:21;11.58;37.47
71128;SHT30;59249;59.736;30.568;2023-05-07T08:52:52;11.71;37.24
71128;SHT30;59249;59.736;30.568;2023-05-07T08:55:24;11.52;36.02
71128;SHT30;59249;59.736;30.568;2023-05-07T08:57:56;11.64;36.35
71128;SHT30;59249;59.736;30.568;2023-05-07T09:00:26;11.12;36.69
71128;SHT30;59249;59.736;30.568;2023-05-07T09:03:02;10.82;36.95
71128;SHT30;59249;59.736;30.568;2023-05-07T09:05:37;11.28;36.83
71128;SHT30;59249;59.736;30.568;2023-05-07T09:08:08;11.60;36.96
71128;SHT30;59249;59.736;30.568;2023-05-07T09:10:38;11.66;36.77
71128;SHT30;59249;59.736;30.568;2023-05-07T09:13:09;11.36;36.44
71128;SHT30;59249;59.736;30.568;2023-05-07T09:15:50;11.64;36.70
71128;SHT30;59249;59.736;30.568;2023-05-07T09:18:20;11.53;36.24
71128;SHT30;59249;59.736;30.568;2023-05-07T09:20:49;11.81;35.72
71128;SHT30;59249;59.736;30.568;2023-05-07T09:23:21;11.80;35.79
71128;SHT30;59249;59.736;30.568;2023-05-07T09:25:49;12.01;35.97
71128;SHT30;59249;59.736;30.568;2023-05-07T09:28:26;12.13;35.97
71128;SHT30;59249;59.736;30.568;2023-05-07T09:30:57;12.32;35.22
71128;SHT30;59249;59.736;30.568;2023-05-07T09:33:28;12.31;35.21
71128;SHT30;59249;59.736;30.568;2023-05-07T09:36:03;12.33;35.04
71128;SHT30;59249;59.736;30.568;2023-05-07T09:38:33;12.45;34.72
71128;SHT30;59249;59.736;30.568;2023-05-07T09:41:05;12.54;34.65
71128;SHT30;59249;59.736;30.568;2023-05-07T09:43:43;12.70;33.93
71128;SHT30;59249;59.736;30.568;2023-05-07T09:46:15;12.64;33.28
71128;SHT30;59249;59.736;30.568;2023-05-07T09:48:53;12.75;33.09
71128;SHT30;59249;59.736;30.568;2023-05-07T09:51:29;12.73;33.85
71128;SHT30;59249;59.736;30.568;2023-05-07T09:54:02;12.69;33.90
71128;SHT30;59249;59.736;30.568;2023-05-07T09:56:35;12.64;33.78
71128;SHT30;59249;59.736;30.568;2023-05-07T09:59:08;12.62;33.13
71128;SHT30;59249;59.736;30.568;2023-05-07T10:01:41;12.45;32.76
71128;SHT30;59249;59.736;30.568;2023-05-07T10:04:11;12.34;32.73
71128;SHT30;59249;59.736;30.568;2023-05-07T10:06:43;12.28;33.72
71128;SHT30;59249;59.736;30.568;2023-05-07T10:09:14;11.99;33.57
71128;SHT30;59249;59.736;30.568;2023-05-07T10:11:44;12.26;33.34
71128;SHT30;59249;59.736;30.568;2023-05-07T10:14:15;11.92;33.49
71128;SHT30;59249;59.736;30.568;2023-05-07T10:16:45;12.20;33.58
71128;SHT30;59249;59.736;30.568;2023-05-07T10:19:17;12.48;33.20
71128;SHT30;59249;59.736;30.568;2023-05-07T10:21:58;12.32;33.92
71128;SHT30;59249;59.736;30.568;2023-05-07T10:24:33;12.38;33.10
71128;SHT30;59249;59.736;30.568;2023-05-07T10:27:11;12.16;33.35
71128;SHT30;59249;59.736;30.568;2023-05-07T10:29:57;11.94;33.97
71128;SHT30;59249;59.736;30.568;2023-05-07T10:32:39;11.97;34.66
71128;SHT30;59249;59.736;30.568;2023-05-07T10:35:18;12.22;34.65
71128;SHT30;59249;59.736;30.568;2023-05-07T10:37:50;12.08;33.99
71128;SHT30;59249;59.736;30.568;2023-05-07T10:40:21;12.35;33.78
71128;SHT30;59249;59.736;30.568;2023-05-07T10:42:57;12.38;34.06
71128;SHT30;59249;59.736;30.568;2023-05-07T10:45:31;12.37;34.06
71128;SHT30;59249;59.736;30.568;2023-05-07T10:48:10;12.39;33.85
71128;SHT30;59249;59.736;30.568;2023-05-07T10:51:22;12.64;34.43
71128;SHT30;59249;59.736;30.568;2023-05-07T10:54:21;12.93;33.80
71128;SHT30;59249;59.736;30.568;2023-05-07T10:57:35;13.18;33.50
71128;SHT30;59249;59.736;30.568;2023-05-07T11:00:43;13.22;33.00
71128;SHT30;59249;59.736;30.568;2023-05-07T11:03:23;13.28;33.15
71128;SHT30;59249;59.736;30.568;2023-05-07T11:06:11;13.24;33.66
71128;SHT30;59249;59.736;30.568;2023-05-07T11:08:55;13.49;33.93
71128;SHT30;59249;59.736;30.568;2023-05-07T11:11:45;13.79;33.22
71128;SHT30;59249;59.736;30.568;2023-05-07T11:14:46;13.11;33.22
71128;SHT30;59249;59.736;30.568;2023-05-07T11:17:21;13.18;33.75
71128;SHT30;59249;59.736;30.568;2023-05-07T11:19:57;13.13;33.91
71128;SHT30;59249;59.736;30.568;2023-05-07T11:22:48;13.27;34.11
71128;SHT30;59249;59.736;30.568;2023-05-07T11:25:18;13.53;33.85
71128;SHT30;59249;59.736;30.568;2023-05-07T11:27:53;13.63;33.39
71128;SHT30;59249;59.736;30.568;2023-05-07T11:30:23;13.08;33.52
71128;SHT30;59249;59.736;30.568;2023-05-07T11:32:53;12.56;33.44
71128;SHT30;59249;59.736;30.568;2023-05-07T11:35:23;12.93;33.69
71128;SHT30;59249;59.736;30.568;2023-05-07T11:37:59;12.58;34.11
71128;SHT30;59249;59.736;30.568;2023-05-07T11:40:32;12.75;34.08
71128;SHT30;59249;59.736;30.568;2023-05-07T11:43:10;12.92;33.95
71128;SHT30;59249;59.736;30.568;2023-05-07T11:45:39;12.93;33.69
71128;SHT30;59249;59.736;30.568;2023-05-07T11:48:09;13.00;34.02
71128;SHT30;59249;59.736;30.568;2023-05-07T11:50:50;13.30;33.47
71128;SHT30;59249;59.736;30.568;2023-05-07T11:53:22;13.43;33.36
71128;SHT30;59249;59.736;30.568;2023-05-07T11:55:53;13.64;33.18
71128;SHT30;59249;59.736;30.568;2023-05-07T11:58:23;13.73;32.33
71128;SHT30;59249;59.736;30.568;2023-05-07T12:00:54;13.76;32.45
71128;SHT30;59249;59.736;30.568;2023-05-07T12:03:24;13.41;32.53
71128;SHT30;59249;59.736;30.568;2023-05-07T12:05:56;13.30;32.76
71128;SHT30;59249;59.736;30.568;2023-05-07T12:08:24;13.34;32.71
71128;SHT30;59249;59.736;30.568;2023-05-07T12:10:54;13.36;32.83
71128;SHT30;59249;59.736;30.568;2023-05-07T12:13:25;13.37;32.74
71128;SHT30;59249;59.736;30.568;2023-05-07T12:15:56;13.62;32.87
71128;SHT30;59249;59.736;30.568;2023-05-07T12:18:27;13.56;32.81
71128;SHT30;59249;59.736;30.568;2023-05-07T12:20:56;12.95;33.72
71128;SHT30;59249;59.736;30.568;2023-05-07T12:23:25;12.60;33.65
71128;SHT30;59249;59.736;30.568;2023-05-07T12:25:54;12.43;33.90
71128;SHT30;59249;59.736;30.568;2023-05-07T12:28:23;12.45;33.74
71128;SHT30;59249;59.736;30.568;2023-05-07T12:30:53;12.61;33.81
71128;SHT30;59249;59.736;30.568;2023-05-07T12:33:26;12.84;33.86
71128;SHT30;59249;59.736;30.568;2023-05-07T12:36:03;12.67;33.26
71128;SHT30;59249;59.736;30.568;2023-05-07T12:38:36;13.07;33.24
71128;SHT30;59249;59.736;30.568;2023-05-07T12:41:08;13.08;33.19
71128;SHT30;59249;59.736;30.568;2023-05-07T12:43:37;13.33;33.90
71128;SHT30;59249;59.736;30.568;2023-05-07T12:46:07;13.07;33.92
71128;SHT30;59249;59.736;30.568;2023-05-07T12:48:41;13.09;34.32
71128;SHT30;59249;59.736;30.568;2023-05-07T12:51:13;13.36;34.63
71128;SHT30;59249;59.736;30.568;2023-05-07T12:53:43;13.47;34.48
71128;SHT30;59249;59.736;30.568;2023-05-07T12:56:12;13.48;34.31
71128;SHT30;59249;59.736;30.568;2023-05-07T12:58:44;13.59;34.09
71128;SHT30;59249;59.736;30.568;2023-05-07T13:01:12;13.51;34.28
71128;SHT30;59249;59.736;30.568;2023-05-07T13:03:48;13.58;34.31
71128;SHT30;59249;59.736;30.568;2023-05-07T13:06:18;13.62;34.49
71128;SHT30;59249;59.736;30.568;2023-05-07T13:08:47;13.09;33.74
71128;SHT30;59249;59.736;30.568;2023-05-07T13:11:16;13.39;34.25
71128;SHT30;59249;59.736;30.568;2023-05-07T13:13:45;13.28;34.34
71128;SHT30;59249;59.736;30.568;2023-05-07T13:16:14;13.50;33.98
71128;SHT30;59249;59.736;30.568;2023-05-07T13:18:44;13.53;34.18
71128;SHT30;59249;59.736;30.568;2023-05-07T13:21:13;13.49;33.81
71128;SHT30;59249;59.736;30.568;2023-05-07T13:23:42;12.92;33.58
71128;SHT30;59249;59.736;30.568;2023-05-07T13:26:10;12.87;33.73
71128;SHT30;59249;59.736;30.568;2023-05-07T13:28:53;12.95;33.73
71128;SHT30;59249;59.736;30.568;2023-05-07T13:31:22;13.17;33.43
71128;SHT30;59249;59.736;30.568;2023-05-07T13:33:52;13.26;34.10
71128;SHT30;59249;59.736;30.568;2023-05-07T13:36:23;13.04;33.66
71128;SHT30;59249;59.736;30.568;2023-05-07T13:38:52;12.81;33.58
71128;SHT30;59249;59.736;30.568;2023-05-07T13:41:21;13.03;33.98
71128;SHT30;59249;59.736;30.568;2023-05-07T13:43:52;12.68;33.75
71128;SHT30;59249;59.736;30.568;2023-05-07T13:46:24;12.64;34.06
71128;SHT30;59249;59.736;30.568;2023-05-07T13:49:04;12.69;34.43
71128;SHT30;59249;59.736;30.568;2023-05-07T13:51:33;12.89;34.68
71128;SHT30;59249;59.736;30.568;2023-05-07T13:54:03;13.04;35.06
71128;SHT30;59249;59.736;30.568;2023-05-07T13:56:32;12.82;34.80
71128;SHT30;59249;59.736;30.568;2023-05-07T13:59:01;12.41;34.68
71128;SHT30;59249;59.736;30.568;2023-05-07T14:01:31;12.74;35.24
71128;SHT30;59249;59.736;30.568;2023-05-07T14:04:10;12.88;35.11
71128;SHT30;59249;59.736;30.568;2023-05-07T14:06:52;12.67;34.68
71128;SHT30;59249;59.736;30.568;2023-05-07T14:09:51;12.77;34.68
71128;SHT30;59249;59.736;30.568;2023-05-07T14:12:32;12.69;34.93
71128;SHT30;59249;59.736;30.568;2023-05-07T14:15:02;12.39;34.92
71128;SHT30;59249;59.736;30.568;2023-05-07T14:17:38;12.67;35.31
71128;SHT30;59249;59.736;30.568;2023-05-07T14:20:25;12.71;34.81
71128;SHT30;59249;59.736;30.568;2023-05-07T14:22:56;12.46;34.94
71128;SHT30;59249;59.736;30.568;2023-05-07T14:25:26;12.83;35.24
71128;SHT30;59249;59.736;30.568;2023-05-07T14:27:55;12.77;35.10
71128;SHT30;59249;59.736;30.568;2023-05-07T14:30:24;12.84;34.97
71128;SHT30;59249;59.736;30.568;2023-05-07T14:32:53;13.16;34.85
71128;SHT30;59249;59.736;30.568;2023-05-07T14:35:22;13.65;34.78
71128;SHT30;59249;59.736;30.568;2023-05-07T14:37:59;13.26;34.80
71128;SHT30;59249;59.736;30.568;2023-05-07T14:40:39;13.64;34.89
71128;SHT30;59249;59.736;30.568;2023-05-07T14:43:09;14.13;34.45
71128;SHT30;59249;59.736;30.568;2023-05-07T14:45:38;14.24;34.21
71128;SHT30;59249;59.736;30.568;2023-05-07T14:48:09;14.17;34.03
71128;SHT30;59249;59.736;30.568;2023-05-07T14:50:42;14.17;33.81
71128;SHT30;59249;59.736;30.568;2023-05-07T14:53:17;14.50;33.79
71128;SHT30;59249;59.736;30.568;2023-05-07T14:55:53;14.88;33.98
71128;SHT30;59249;59.736;30.568;2023-05-07T14:58:22;14.98;33.88
71128;SHT30;59249;59.736;30.568;2023-05-07T15:00:51;14.41;33.66
71128;SHT30;59249;59.736;30.568;2023-05-07T15:03:25;13.90;33.93
71128;SHT30;59249;59.736;30.568;2023-05-07T15:05:54;13.81;34.08
71128;SHT30;59249;59.736;30.568;2023-05-07T15:08:34;14.06;34.13
71128;SHT30;59249;59.736;30.568;2023-05-07T15:11:11;14.29;34.18
71128;SHT30;59249;59.736;30.568;2023-05-07T15:13:43;14.83;33.87
71128;SHT30;59249;59.736;30.568;2023-05-07T15:16:15;14.83;34.09
71128;SHT30;59249;59.736;30.568;2023-05-07T15:18:44;15.09;33.77
71128;SHT30;59249;59.736;30.568;2023-05-07T15:21:13;15.27;33.89
71128;SHT30;59249;59.736;30.568;2023-05-07T15:23:43;15.16;33.72
71128;SHT30;59249;59.736;30.568;2023-05-07T15:26:13;15.49;34.06
71128;SHT30;59249;59.736;30.568;2023-05-07T15:28:44;15.53;34.26
71128;SHT30;59249;59.736;30.568;2023-05-07T15:31:30;15.56;33.58
71128;SHT30;59249;59.736;30.568;2023-05-07T15:34:00;15.42;33.56
71128;SHT30;59249;59.736;30.568;2023-05-07T15:36:31;15.27;34.19
71128;SHT30;59249;59.736;30.568;2023-05-07T15:39:05;15.60;34.24
71128;SHT30;59249;59.736;30.568;2023-05-07T15:41:33;15.14;33.61
71128;SHT30;59249;59.736;30.568;2023-05-07T15:44:04;15.10;34.15
71128;SHT30;59249;59.736;30.568;2023-05-07T15:46:33;15.07;34.46
71128;SHT30;59249;59.736;30.568;2023-05-07T15:49:03;14.76;34.86
71128;SHT30;59249;59.736;30.568;2023-05-07T15:51:35;14.37;35.33